Viking Queen — WDB9919 — position and weather

sailwx.info

Track history (hours):
 
Tides and Currents Weather Stations Pressure Air Temp Water Temp Dewpoint Dewpoint Depression Visibility Wind Speed Wind Dir Waves Ship Positions

Viking Queen

Owner: American River Transportation Company, St Louis, MO. More information available from US FCC via Universal Licensing System and Coast Guard Vessel Documentation Center.

Last reported at 2017-Feb-19 03:09 UTC. Time now 2017-Feb-26 10:32 UTC.
Position N 32°47' W 091°10'.

; draft 3 m.

Type: Towing. MMSI: 366985050.

Date/timePositionNaut miles runAvg speedWind from/ knotsBaromVisibWave heightAir tempDewpointWater temp
2017-Feb-19 03:09N 32°47' W 091°10'2 3.2
2017-Feb-19 02:33N 32°45' W 091°09'4 3.4
2017-Feb-19 01:29N 32°44' W 091°05'4 3.1
2017-Feb-19 00:12N 32°40' W 091°06'2 3.6
2017-Feb-18 23:33N 32°39' W 091°09'2 2.5
2017-Feb-18 22:33N 32°37' W 091°09'5 4.7
2017-Feb-18 21:33N 32°33' W 091°06'5 4.8
2017-Feb-18 20:33N 32°28' W 091°06'5 5.0
2017-Feb-18 19:33N 32°26' W 091°01'4 4.0
2017-Feb-18 18:33N 32°22' W 091°00'5 5.0
2017-Feb-18 17:33N 32°21' W 090°55'3 2.5
2017-Feb-18 16:33N 32°18' W 090°55'0 0.0
2017-Feb-18 15:33N 32°18' W 090°55'0 0.0
2017-Feb-18 14:33N 32°18' W 090°55'0 0.0
2017-Feb-18 13:33N 32°18' W 090°55'0 0.2
2017-Feb-18 12:33N 32°18' W 090°55'5 4.6
2017-Feb-18 11:33N 32°15' W 090°59'5 4.6
2017-Feb-18 10:34N 32°10' W 090°60'4 4.0
2017-Feb-18 09:33N 32°08' W 091°04'2 2.5
2017-Feb-18 08:34N 32°06' W 091°06'  
2017-Feb-13 20:07N 32°06' W 091°06'2 2.8
2017-Feb-13 19:33N 32°08' W 091°05'5 5.3
2017-Feb-13 18:33N 32°10' W 090°60'8 8.0
2017-Feb-13 17:33N 32°18' W 090°56'5 5.1
2017-Feb-13 16:33N 32°21' W 090°60'7 6.7
2017-Feb-13 15:33N 32°27' W 091°04'8 7.3
2017-Feb-13 14:31N 32°34' W 091°07'  
Track history (hours):
 
Tides and Currents Weather Stations Pressure Air Temp Water Temp Dewpoint Dewpoint Depression Visibility Wind Speed Wind Dir Waves Ship Positions

Viking Queen

Owner: American River Transportation Company, St Louis, MO. More information available from US FCC via Universal Licensing System and Coast Guard Vessel Documentation Center.

Last reported at 2017-Feb-19 03:09 UTC. Time now 2017-Feb-26 10:32 UTC.
Position N 32°47' W 091°10'.

; draft 3 m.

Type: Towing. MMSI: 366985050.

Date/timePositionNaut miles runAvg speedWind from/ knotsBaromVisibWave heightAir tempDewpointWater temp
2017-Feb-19 03:09N 32°47' W 091°10'2 3.2
2017-Feb-19 02:33N 32°45' W 091°09'4 3.4
2017-Feb-19 01:29N 32°44' W 091°05'4 3.1
2017-Feb-19 00:12N 32°40' W 091°06'2 3.6
2017-Feb-18 23:33N 32°39' W 091°09'2 2.5
2017-Feb-18 22:33N 32°37' W 091°09'5 4.7
2017-Feb-18 21:33N 32°33' W 091°06'5 4.8
2017-Feb-18 20:33N 32°28' W 091°06'5 5.0
2017-Feb-18 19:33N 32°26' W 091°01'4 4.0
2017-Feb-18 18:33N 32°22' W 091°00'5 5.0
2017-Feb-18 17:33N 32°21' W 090°55'3 2.5
2017-Feb-18 16:33N 32°18' W 090°55'0 0.0
2017-Feb-18 15:33N 32°18' W 090°55'0 0.0
2017-Feb-18 14:33N 32°18' W 090°55'0 0.0
2017-Feb-18 13:33N 32°18' W 090°55'0 0.2
2017-Feb-18 12:33N 32°18' W 090°55'5 4.6
2017-Feb-18 11:33N 32°15' W 090°59'5 4.6
2017-Feb-18 10:34N 32°10' W 090°60'4 4.0
2017-Feb-18 09:33N 32°08' W 091°04'2 2.5
2017-Feb-18 08:34N 32°06' W 091°06'  
2017-Feb-13 20:07N 32°06' W 091°06'2 2.8
2017-Feb-13 19:33N 32°08' W 091°05'5 5.3
2017-Feb-13 18:33N 32°10' W 090°60'8 8.0
2017-Feb-13 17:33N 32°18' W 090°56'5 5.1
2017-Feb-13 16:33N 32°21' W 090°60'7 6.7
2017-Feb-13 15:33N 32°27' W 091°04'8 7.3
2017-Feb-13 14:31N 32°34' W 091°07'  

Dump ship's entire track history